Time;durP1;ratioP1;P1;durP2;ratioP2;P2;SDS_P1;SDS_P2;PMS_P1;PMS_P2;Temp;Humidity;BMP_temperature;BMP_pressure;BME280_temperature;BME280_humidity;BME280_pressure;Samples;Min_cycle;Max_cycle;Signal;HPM_P1;HPM_P2
2020/12/02 00:02:09;;;;;;;23.10;9.57;;;;;;;0.68;92.14;98923.47;5063758;28;20029;-76
2020/12/02 00:04:34;;;;;;;25.58;10.10;;;;;;;0.69;92.41;98929.69;5066111;28;20036;-76
2020/12/02 00:07:00;;;;;;;27.02;10.23;;;;;;;0.60;92.24;98921.53;5063514;28;20345;-76
2020/12/02 00:09:25;;;;;;;31.02;10.63;;;;;;;0.54;92.24;98913.25;5063068;28;20083;-75
2020/12/02 00:11:51;;;;;;;29.00;11.05;;;;;;;0.59;92.48;98921.66;5049682;28;20037;-76
2020/12/02 00:14:25;;;;;;;27.15;10.23;;;;;;;0.62;92.42;98932.88;5045878;28;20056;-75
2020/12/02 00:16:51;;;;;;;25.98;10.38;;;;;;;0.52;92.20;98923.19;5030398;28;20553;-75
2020/12/02 00:19:18;;;;;;;27.05;9.73;;;;;;;0.59;91.99;98938.47;5036898;28;20035;-75
2020/12/02 00:21:59;;;;;;;28.73;10.32;;;;;;;0.58;92.40;98936.78;5048068;28;20452;-74
2020/12/02 00:24:24;;;;;;;23.45;10.25;;;;;;;0.61;91.98;98941.00;5048545;28;20498;-75
2020/12/02 00:26:49;;;;;;;30.30;10.38;;;;;;;0.66;92.01;98930.78;5048516;28;20035;-75
2020/12/02 00:29:15;;;;;;;26.70;10.18;;;;;;;0.59;92.07;98919.84;5065967;28;20059;-75
2020/12/02 00:31:40;;;;;;;26.63;10.98;;;;;;;0.65;92.23;98931.75;5054169;28;20113;-75
2020/12/02 00:34:05;;;;;;;21.65;8.93;;;;;;;0.72;92.48;98927.56;5050454;28;20569;-75
2020/12/02 00:36:30;;;;;;;24.27;9.52;;;;;;;0.68;92.62;98918.16;5047353;28;20025;-75
2020/12/02 00:38:56;;;;;;;22.17;9.85;;;;;;;0.72;92.07;98932.06;5049096;28;20025;-75
2020/12/02 00:41:21;;;;;;;21.15;9.60;;;;;;;0.63;92.14;98909.78;5047658;28;20037;-75
2020/12/02 00:43:46;;;;;;;23.48;9.63;;;;;;;0.65;92.46;98919.31;5045243;28;20032;-75
2020/12/02 00:46:12;;;;;;;24.73;9.57;;;;;;;0.63;92.24;98918.59;5048002;28;20053;-75
2020/12/02 00:48:37;;;;;;;24.08;9.80;;;;;;;0.59;92.24;98908.34;5050744;28;20029;-75
2020/12/02 00:51:05;;;;;;;24.67;9.35;;;;;;;0.68;92.19;98914.66;5049395;28;20060;-75
2020/12/02 00:53:33;;;;;;;21.60;9.05;;;;;;;0.70;92.25;98918.03;5044891;28;20068;-75
2020/12/02 00:55:58;;;;;;;22.52;8.60;;;;;;;0.72;92.15;98914.25;5047713;28;20039;-74
2020/12/02 00:58:35;;;;;;;17.90;7.93;;;;;;;0.70;91.89;98915.38;5050157;28;20437;-75
2020/12/02 01:01:05;;;;;;;21.20;8.30;;;;;;;0.55;92.20;98889.16;5040069;28;20059;-75
2020/12/02 01:03:30;;;;;;;19.70;8.60;;;;;;;0.73;91.93;98899.94;5039673;28;20044;-74
2020/12/02 01:05:57;;;;;;;21.45;8.63;;;;;;;0.77;91.76;98906.69;5046785;28;20039;-75
2020/12/02 01:08:36;;;;;;;21.70;9.77;;;;;;;0.73;92.03;98902.59;5047289;28;20028;-75
2020/12/02 01:11:07;;;;;;;20.40;8.45;;;;;;;0.72;91.95;98894.78;5046147;28;20036;-74
2020/12/02 01:13:34;;;;;;;22.92;8.95;;;;;;;0.61;92.05;98893.91;5043470;28;20025;-74
2020/12/02 01:16:03;;;;;;;18.27;8.45;;;;;;;0.62;91.88;98890.25;5046730;28;20485;-75
2020/12/02 01:18:28;;;;;;;21.63;8.73;;;;;;;0.65;91.56;98884.69;5048497;28;20032;-75
2020/12/02 01:21:10;;;;;;;24.70;8.98;;;;;;;0.63;91.95;98899.94;5047566;28;20421;-74
2020/12/02 01:23:36;;;;;;;19.90;8.65;;;;;;;0.70;91.89;98904.72;5044617;28;20028;-75
2020/12/02 01:26:02;;;;;;;19.40;8.60;;;;;;;0.70;91.87;98902.88;5048494;28;20036;-75
2020/12/02 01:28:30;;;;;;;22.05;9.25;;;;;;;0.74;92.08;98903.47;5048087;28;20032;-75
2020/12/02 01:30:57;;;;;;;20.30;9.10;;;;;;;0.77;91.92;98905.84;5038421;28;20041;-74
2020/12/02 01:33:23;;;;;;;22.48;9.30;;;;;;;0.69;92.33;98892.41;5032941;28;20033;-75
2020/12/02 01:35:50;;;;;;;20.08;9.13;;;;;;;0.80;92.27;98911.72;5031309;28;20029;-75
2020/12/02 01:38:28;;;;;;;20.65;9.13;;;;;;;0.74;91.97;98896.31;5042323;28;20136;-74
2020/12/02 01:40:56;;;;;;;21.05;8.93;;;;;;;0.84;92.10;98905.16;5040250;28;20039;-75
2020/12/02 01:43:21;;;;;;;18.02;8.80;;;;;;;0.80;91.89;98908.25;5045973;28;20028;-75
2020/12/02 01:45:49;;;;;;;22.10;8.93;;;;;;;0.75;92.08;98916.63;5046014;28;20025;-75
2020/12/02 01:48:29;;;;;;;21.02;9.25;;;;;;;0.73;91.90;98907.09;5048762;28;20025;-75
2020/12/02 01:51:21;;;;;;;24.02;8.50;;;;;;;0.60;91.96;98894.03;5046487;28;20028;-75
2020/12/02 01:54:08;;;;;;;20.77;9.07;;;;;;;0.63;92.30;98899.13;5037850;28;20171;-74
2020/12/02 01:57:00;;;;;;;20.55;8.82;;;;;;;0.63;92.59;98897.28;5047536;28;20039;-74
2020/12/02 02:00:03;;;;;;;20.90;8.98;;;;;;;0.64;92.59;98898.97;5046313;28;20029;-75
2020/12/02 02:02:37;;;;;;;25.05;9.25;;;;;;;0.54;92.45;98887.47;5030497;28;20158;-75
2020/12/02 02:05:19;;;;;;;21.40;8.52;;;;;;;0.68;92.33;98890.69;5046556;28;20103;-75
2020/12/02 02:07:44;;;;;;;19.92;8.32;;;;;;;0.67;92.25;98887.19;5061153;28;20032;-75
2020/12/02 02:10:21;;;;;;;25.33;8.63;;;;;;;0.75;92.28;98902.47;5048102;28;20398;-75
2020/12/02 02:12:55;;;;;;;23.67;9.20;;;;;;;0.72;91.96;98894.78;5037417;28;20034;-75
2020/12/02 02:15:40;;;;;;;21.17;8.73;;;;;;;0.67;92.28;98892.53;5048444;28;20076;-75
2020/12/02 02:18:22;;;;;;;18.10;8.55;;;;;;;0.67;92.21;98883.69;5044444;28;20032;-75
2020/12/02 02:20:51;;;;;;;18.15;7.80;;;;;;;0.67;92.12;98883.69;5033238;28;20418;-75
2020/12/02 02:23:18;;;;;;;19.27;8.05;;;;;;;0.67;92.14;98879.22;5046664;28;20095;-75
2020/12/02 02:25:55;;;;;;;20.65;9.30;;;;;;;0.56;92.27;98858.88;5048169;28;20029;-75
2020/12/02 02:28:21;;;;;;;23.75;8.77;;;;;;;0.71;92.05;98879.75;5057584;28;20026;-75
2020/12/02 02:30:47;;;;;;;18.27;8.30;;;;;;;0.76;91.80;98875.72;5040544;28;20056;-75
2020/12/02 02:33:12;;;;;;;22.77;8.30;;;;;;;0.88;91.92;98884.41;5048633;28;20074;-75
2020/12/02 02:35:37;;;;;;;25.02;9.05;;;;;;;0.89;91.38;98878.09;5039646;28;20069;-74
2020/12/02 02:38:04;;;;;;;18.20;8.48;;;;;;;0.84;91.27;98877.69;5044832;28;20556;-75
2020/12/02 02:40:30;;;;;;;21.05;8.05;;;;;;;0.86;91.35;98865.91;5048045;28;20410;-75
2020/12/02 02:43:03;;;;;;;21.65;8.90;;;;;;;0.80;91.41;98865.63;5045552;28;20029;-74
2020/12/02 02:45:28;;;;;;;23.38;9.50;;;;;;;0.88;91.47;98877.25;5049598;28;20021;-75
2020/12/02 02:48:05;;;;;;;21.90;9.50;;;;;;;0.91;91.29;98878.78;5047184;28;20037;-75
2020/12/02 02:50:32;;;;;;;22.42;9.48;;;;;;;0.94;91.81;98875.84;5047310;28;20025;-75
2020/12/02 02:52:58;;;;;;;22.40;8.60;;;;;;;0.87;91.09;98864.94;5044808;28;20083;-75
2020/12/02 02:55:26;;;;;;;21.15;8.63;;;;;;;0.97;91.40;98874.72;5047486;28;20029;-74
2020/12/02 02:57:51;;;;;;;20.20;8.35;;;;;;;1.01;90.92;98874.31;5042729;28;20029;-75
2020/12/02 03:00:24;;;;;;;20.08;7.80;;;;;;;0.97;91.12;98859.59;5048626;28;20047;-75
2020/12/02 03:02:50;;;;;;;24.27;9.05;;;;;;;0.93;90.86;98876.84;5046978;28;20075;-75
2020/12/02 03:05:15;;;;;;;22.25;8.98;;;;;;;0.88;90.62;98868.44;5048363;28;20433;-75
2020/12/02 03:07:42;;;;;;;27.02;10.43;;;;;;;1.01;90.25;98863.66;5046004;28;20032;-75
2020/12/02 03:10:14;;;;;;;24.40;9.70;;;;;;;1.01;90.49;98863.66;5038875;28;20032;-74
2020/12/02 03:12:39;;;;;;;27.38;11.07;;;;;;;0.97;90.30;98859.59;5033514;28;20041;-75
2020/12/02 03:15:07;;;;;;;27.52;10.98;;;;;;;0.96;90.95;98859.75;5030319;28;20094;-75
2020/12/02 03:17:32;;;;;;;25.65;10.77;;;;;;;0.98;90.61;98853.28;5043371;28;20033;-74
2020/12/02 03:20:14;;;;;;;30.65;12.32;;;;;;;1.08;90.11;98859.44;5046217;28;20024;-75
2020/12/02 03:22:39;;;;;;;26.48;11.48;;;;;;;1.09;89.49;98860.28;5031788;28;20033;-75
2020/12/02 03:25:05;;;;;;;32.33;12.18;;;;;;;1.12;89.83;98869.81;5044328;28;20106;-75
2020/12/02 03:27:30;;;;;;;25.20;11.10;;;;;;;1.25;89.75;98862.38;5032204;28;20040;-75
2020/12/02 03:29:55;;;;;;;23.65;9.88;;;;;;;1.25;88.49;98865.03;5050951;28;20063;-74
2020/12/02 03:32:21;;;;;;;27.38;10.55;;;;;;;1.29;88.34;98871.78;5048231;28;20033;-74
2020/12/02 03:34:46;;;;;;;24.77;10.23;;;;;;;1.36;88.86;98861.38;5052044;28;20359;-75
2020/12/02 03:37:12;;;;;;;20.10;9.95;;;;;;;1.42;87.38;98860.81;5050259;28;20028;-75
2020/12/02 03:39:37;;;;;;;19.70;9.13;;;;;;;1.41;88.07;98865.28;5048923;28;20029;-76
2020/12/02 03:42:03;;;;;;;23.65;10.55;;;;;;;1.36;87.64;98854.19;5050090;28;20406;-75
2020/12/02 03:44:28;;;;;;;19.98;9.65;;;;;;;1.37;87.68;98863.91;5043509;28;20044;-75
2020/12/02 03:46:55;;;;;;;21.55;10.25;;;;;;;1.31;87.90;98869.81;5049015;28;20056;-75
2020/12/02 03:49:20;;;;;;;20.80;9.93;;;;;;;1.23;88.64;98862.53;5045409;28;20112;-76
2020/12/02 03:51:46;;;;;;;18.63;9.10;;;;;;;1.18;88.49;98871.91;5050070;28;20120;-75
2020/12/02 03:54:11;;;;;;;20.80;9.55;;;;;;;1.20;88.10;98862.78;5051143;28;20044;-75
2020/12/02 03:56:36;;;;;;;19.23;9.20;;;;;;;1.19;88.83;98865.63;5049732;28;20051;-76
2020/12/02 03:59:02;;;;;;;17.38;8.77;;;;;;;1.23;87.95;98867.84;5049533;28;20028;-75
2020/12/02 04:01:28;;;;;;;25.35;11.18;;;;;;;1.17;88.41;98859.56;5048796;28;20095;-76
2020/12/02 04:03:53;;;;;;;24.75;11.70;;;;;;;1.13;88.71;98866.16;5049488;28;20037;-76
2020/12/02 04:06:19;;;;;;;23.27;9.98;;;;;;;1.06;88.62;98865.91;5051429;28;20043;-76
2020/12/02 04:08:44;;;;;;;21.60;9.85;;;;;;;1.04;88.73;98860.69;5050563;28;20041;-76
2020/12/02 04:11:12;;;;;;;28.73;11.80;;;;;;;1.05;89.14;98875.72;5047371;28;20482;-72
2020/12/02 04:13:37;;;;;;;29.25;12.52;;;;;;;0.91;88.84;98860.16;5042878;28;20040;-73
2020/12/02 04:16:02;;;;;;;22.33;11.20;;;;;;;0.89;89.45;98848.78;5049860;28;20457;-74
2020/12/02 04:18:29;;;;;;;23.77;11.48;;;;;;;0.92;89.82;98864.50;5043829;28;20032;-72
2020/12/02 04:20:54;;;;;;;32.80;12.98;;;;;;;0.81;89.54;98835.34;5044976;28;20112;-76
2020/12/02 04:23:19;;;;;;;24.52;12.68;;;;;;;0.94;89.22;98853.69;5050276;28;20148;-76
2020/12/02 04:25:45;;;;;;;24.98;12.35;;;;;;;0.96;89.31;98857.91;5049891;28;20094;-71
2020/12/02 04:28:11;;;;;;;25.55;11.35;;;;;;;0.95;89.32;98858.06;5049945;28;20044;-74
2020/12/02 04:30:36;;;;;;;20.55;10.32;;;;;;;0.99;88.87;98860.28;5044878;28;20038;-77
2020/12/02 04:33:01;;;;;;;21.67;10.32;;;;;;;0.96;88.79;98847.25;5047755;28;20037;-73
2020/12/02 04:35:27;;;;;;;19.30;9.85;;;;;;;0.93;89.57;98855.53;5040653;28;20545;-73
2020/12/02 04:37:52;;;;;;;16.52;8.13;;;;;;;1.02;89.18;98854.69;5044887;28;20033;-74
2020/12/02 04:40:25;;;;;;;19.40;9.07;;;;;;;0.96;89.29;98854.41;5043028;28;20041;-74
2020/12/02 04:42:57;;;;;;;18.98;9.10;;;;;;;0.97;89.19;98861.41;5046491;28;20043;-74
2020/12/02 04:45:23;;;;;;;17.42;9.23;;;;;;;0.87;89.38;98846.28;5045572;28;20080;-73
2020/12/02 04:47:49;;;;;;;18.70;9.10;;;;;;;0.86;89.02;98844.63;5039970;28;20070;-76
2020/12/02 04:50:21;;;;;;;16.83;8.75;;;;;;;0.81;89.33;98835.34;5047005;28;20580;-75
2020/12/02 04:53:00;;;;;;;18.23;8.50;;;;;;;0.91;89.32;98848.66;5044475;28;20232;-74
2020/12/02 04:55:26;;;;;;;18.13;8.48;;;;;;;0.87;89.16;98856.09;5049815;28;20048;-74
2020/12/02 04:57:51;;;;;;;20.70;8.90;;;;;;;0.88;89.29;98857.78;5051269;28;20107;-74
2020/12/02 05:00:29;;;;;;;16.95;7.80;;;;;;;0.90;89.21;98854.97;5044121;28;20056;-74
2020/12/02 05:03:09;;;;;;;17.67;8.52;;;;;;;0.88;89.28;98853.28;5039412;28;20037;-75
2020/12/02 05:05:35;;;;;;;17.67;8.32;;;;;;;0.88;89.29;98861.28;5045738;28;20029;-77
2020/12/02 05:08:22;;;;;;;17.67;8.27;;;;;;;0.85;89.20;98853.56;5045851;28;20040;-70
2020/12/02 05:10:47;;;;;;;19.33;8.55;;;;;;;0.83;89.48;98852.03;5046542;28;20032;-75
2020/12/02 05:13:13;;;;;;;17.45;8.65;;;;;;;0.79;89.66;98847.97;5044661;28;20029;-75
2020/12/02 05:15:38;;;;;;;19.33;9.38;;;;;;;0.86;89.47;98859.72;5049200;28;20037;-74
2020/12/02 05:18:18;;;;;;;17.95;8.38;;;;;;;0.86;89.27;98871.25;5047849;28;20024;-75
2020/12/02 05:21:00;;;;;;;18.20;9.10;;;;;;;0.81;89.57;98860.16;5048227;28;20147;-75
2020/12/02 05:23:25;;;;;;;20.17;10.13;;;;;;;0.75;89.57;98846.56;5046339;28;20386;-76
2020/12/02 05:25:50;;;;;;;19.27;9.40;;;;;;;0.79;89.74;98853.31;5046373;28;20041;-75
2020/12/02 05:28:26;;;;;;;19.80;9.15;;;;;;;0.86;89.43;98863.25;5045069;28;20028;-75
2020/12/02 05:31:10;;;;;;;20.90;9.52;;;;;;;0.84;89.61;98867.03;5044162;28;20032;-75
2020/12/02 05:33:35;;;;;;;20.75;9.30;;;;;;;0.84;89.39;98851.91;5046621;28;20046;-77
2020/12/02 05:36:12;;;;;;;18.55;9.30;;;;;;;0.84;89.67;98864.38;5048087;28;20479;-74
2020/12/02 05:38:42;;;;;;;19.38;9.30;;;;;;;0.89;89.44;98859.44;5038538;28;20035;-77
2020/12/02 05:41:14;;;;;;;17.77;9.15;;;;;;;0.79;89.47;98845.31;5046950;28;20064;-78
2020/12/02 05:43:52;;;;;;;21.02;10.13;;;;;;;0.78;90.03;98849.78;5044128;28;20029;-72
2020/12/02 05:46:32;;;;;;;24.50;10.52;;;;;;;0.79;89.76;98858.63;5043913;28;20048;-74
2020/12/02 05:49:05;;;;;;;20.80;9.63;;;;;;;0.78;89.49;98860.44;5047384;28;20036;-74
2020/12/02 05:51:31;;;;;;;20.88;9.60;;;;;;;0.83;89.81;98857.34;5047146;28;20043;-74
2020/12/02 05:54:01;;;;;;;23.42;9.85;;;;;;;0.79;90.31;98863.97;5041036;28;20104;-73
2020/12/02 05:56:27;;;;;;;20.23;9.75;;;;;;;0.83;90.07;98866.19;5041517;28;20041;-71
2020/12/02 05:58:52;;;;;;;19.63;9.15;;;;;;;0.77;89.74;98852.59;5045886;28;20384;-73
2020/12/02 06:01:21;;;;;;;20.42;9.93;;;;;;;0.71;90.38;98840.69;5038600;28;20041;-76
2020/12/02 06:03:51;;;;;;;21.10;9.75;;;;;;;0.75;90.24;98849.22;5044353;28;20037;-74
2020/12/02 06:06:17;;;;;;;20.50;9.70;;;;;;;0.72;90.59;98852.16;5046800;28;20517;-75
2020/12/02 06:08:46;;;;;;;20.73;9.60;;;;;;;0.71;90.67;98864.66;5043445;28;20057;-75
2020/12/02 06:11:17;;;;;;;22.63;10.15;;;;;;;0.81;90.50;98857.50;5044341;28;20024;-72
2020/12/02 06:13:46;;;;;;;21.48;9.48;;;;;;;0.84;90.14;98865.22;5047481;28;20044;-73
2020/12/02 06:16:24;;;;;;;19.75;9.70;;;;;;;0.80;90.16;98865.63;5045964;28;20094;-74
2020/12/02 06:18:50;;;;;;;20.65;10.27;;;;;;;0.80;89.98;98860.28;5044059;28;20029;-74
2020/12/02 06:21:45;;;;;;;22.45;9.93;;;;;;;0.81;89.96;98853.97;5045490;28;20024;-77
2020/12/02 06:24:13;;;;;;;22.40;9.77;;;;;;;0.74;89.52;98852.88;5044479;28;20060;-79
2020/12/02 06:26:40;;;;;;;20.33;9.68;;;;;;;0.88;89.18;98855.09;5047359;28;20589;-78
2020/12/02 06:29:15;;;;;;;21.40;9.68;;;;;;;0.85;89.41;98860.72;5054233;28;20074;-74
2020/12/02 06:31:40;;;;;;;19.08;9.55;;;;;;;0.89;89.12;98862.09;5044426;28;20566;-78
2020/12/02 06:34:21;;;;;;;21.55;8.98;;;;;;;0.82;88.64;98850.34;5048355;28;20033;-76
2020/12/02 06:37:06;;;;;;;19.42;9.00;;;;;;;0.89;88.77;98859.44;5045753;28;20017;-79
2020/12/02 06:39:35;;;;;;;20.45;10.45;;;;;;;0.90;88.67;98854.97;5048512;28;20028;-78
2020/12/02 06:42:14;;;;;;;19.95;9.02;;;;;;;0.77;89.32;98837.44;5042330;28;20548;-78
2020/12/02 06:45:02;;;;;;;18.30;9.30;;;;;;;0.88;89.53;98858.59;5036620;28;20039;-78
2020/12/02 06:47:29;;;;;;;21.38;9.75;;;;;;;0.83;89.48;98842.22;5060095;28;20075;-75
2020/12/02 06:50:01;;;;;;;17.73;9.35;;;;;;;1.02;88.95;98854.69;5041788;28;20025;-74
2020/12/02 06:52:35;;;;;;;20.20;8.93;;;;;;;1.08;87.34;98843.47;5044926;28;20036;-71
2020/12/02 06:55:15;;;;;;;19.17;9.45;;;;;;;1.01;88.44;98846.84;5047210;28;20036;-73
2020/12/02 06:57:42;;;;;;;18.25;9.43;;;;;;;0.97;89.09;98853.41;5042121;28;20036;-71
2020/12/02 07:00:16;;;;;;;18.98;9.70;;;;;;;0.94;89.07;98841.22;5048014;28;20079;-70
2020/12/02 07:02:53;;;;;;;18.48;9.32;;;;;;;0.94;88.78;98845.72;5037878;28;20029;-72
2020/12/02 07:05:31;;;;;;;20.40;9.75;;;;;;;0.86;89.17;98830.44;5047204;28;20031;-72
2020/12/02 07:08:09;;;;;;;20.83;9.43;;;;;;;0.96;89.14;98838.44;5044778;28;20130;-69
2020/12/02 07:10:34;;;;;;;22.17;10.25;;;;;;;1.00;88.99;98845.16;5049169;28;20040;-69
2020/12/02 07:13:00;;;;;;;20.38;9.77;;;;;;;0.86;89.12;98835.75;5052336;28;20024;-71
2020/12/02 07:15:25;;;;;;;20.63;10.65;;;;;;;0.79;89.56;98840.00;5049487;28;20033;-72
2020/12/02 07:17:50;;;;;;;19.63;9.38;;;;;;;0.80;89.63;98845.16;5051169;28;20074;-72
2020/12/02 07:20:17;;;;;;;20.33;9.98;;;;;;;0.84;89.63;98849.22;5047546;28;20102;-71
2020/12/02 07:22:51;;;;;;;18.05;8.80;;;;;;;0.81;89.74;98848.66;5046442;28;20029;-76
2020/12/02 07:25:16;;;;;;;21.02;9.90;;;;;;;0.84;89.99;98843.06;5047701;28;20107;-73
2020/12/02 07:27:44;;;;;;;20.55;9.85;;;;;;;0.88;89.18;98849.78;5049829;28;20116;-73
2020/12/02 07:30:18;;;;;;;20.00;10.35;;;;;;;0.87;88.56;98840.97;5035134;28;20056;-73
2020/12/02 07:32:43;;;;;;;23.42;10.57;;;;;;;0.98;88.09;98858.63;5050189;28;20040;-73
2020/12/02 07:35:17;;;;;;;19.85;9.70;;;;;;;0.98;88.50;98850.63;5039525;28;20463;-74
2020/12/02 07:37:43;;;;;;;19.85;10.60;;;;;;;1.12;87.57;98845.84;5050597;28;20295;-75
2020/12/02 07:40:29;;;;;;;23.95;10.25;;;;;;;1.24;86.61;98853.53;5049154;28;20086;-75
2020/12/02 07:42:55;;;;;;;20.05;9.65;;;;;;;1.18;86.28;98842.59;5036433;28;20025;-72
2020/12/02 07:45:25;;;;;;;18.98;10.20;;;;;;;1.24;87.04;98850.03;5050523;28;20489;-75
2020/12/02 07:48:07;;;;;;;21.75;10.65;;;;;;;1.24;86.72;98848.22;5050143;28;20033;-74
2020/12/02 07:50:35;;;;;;;21.88;9.95;;;;;;;1.34;86.32;98855.31;5042477;28;20037;-74
2020/12/02 07:53:12;;;;;;;15.00;7.40;;;;;;;1.39;85.93;98853.94;5048456;28;20060;-75
2020/12/02 07:55:44;;;;;;;16.88;8.32;;;;;;;1.39;85.79;98851.28;5044815;28;20347;-73
2020/12/02 07:58:15;;;;;;;17.40;8.52;;;;;;;1.37;85.75;98847.06;5038861;28;20024;-74
2020/12/02 08:00:43;;;;;;;16.50;9.35;;;;;;;1.40;86.02;98850.28;5043559;28;20095;-72
2020/12/02 08:03:30;;;;;;;18.80;9.07;;;;;;;1.48;85.72;98860.22;5044259;28;20029;-73
2020/12/02 08:06:03;;;;;;;17.20;8.27;;;;;;;1.54;84.42;98847.13;5044491;28;20036;-73
2020/12/02 08:08:28;;;;;;;14.98;7.97;;;;;;;1.47;85.01;98861.22;5044749;28;20183;-73
2020/12/02 08:11:14;;;;;;;17.60;8.10;;;;;;;1.59;84.48;98845.88;5051241;28;20502;-72
2020/12/02 08:13:53;;;;;;;17.13;8.45;;;;;;;1.46;84.51;98846.19;5046361;28;20132;-73
2020/12/02 08:16:43;;;;;;;16.63;8.57;;;;;;;1.62;84.34;98856.25;5038593;28;20107;-71
2020/12/02 08:19:11;;;;;;;13.98;6.97;;;;;;;1.74;83.41;98857.75;5038531;28;20029;-71
2020/12/02 08:21:38;;;;;;;17.85;8.70;;;;;;;1.63;83.50;98857.94;5047513;28;23063;-72
2020/12/02 08:24:25;;;;;;;12.77;6.82;;;;;;;1.58;83.15;98860.22;5041972;28;20025;-72
2020/12/02 08:26:51;;;;;;;11.55;6.03;;;;;;;1.64;83.44;98868.44;5054739;28;20044;-71
2020/12/02 08:29:23;;;;;;;11.50;5.40;;;;;;;1.55;82.67;98850.66;5050387;28;20483;-73
2020/12/02 08:32:29;;;;;;;11.93;5.82;;;;;;;1.66;82.18;98855.81;5050859;28;20060;-71
2020/12/02 08:34:55;;;;;;;13.73;6.10;;;;;;;1.60;81.83;98845.75;5034572;28;20144;-69
2020/12/02 08:37:23;;;;;;;11.80;6.18;;;;;;;1.64;81.69;98864.94;5065839;28;20029;-72
2020/12/02 08:39:52;;;;;;;11.48;5.65;;;;;;;1.51;81.95;98858.09;5057245;28;20107;-70
2020/12/02 08:42:41;;;;;;;13.60;6.03;;;;;;;1.58;82.22;98871.72;5060402;28;20039;-72
2020/12/02 08:45:23;;;;;;;;;;;;;;;1.53;82.49;98860.63;5060837;28;20029;-72
2020/12/02 08:47:56;;;;;;;12.90;5.88;;;;;;;1.40;82.81;98866.28;5060285;28;19916;-73
2020/12/02 08:50:28;;;;;;;14.98;6.40;;;;;;;1.47;82.29;98864.72;5054243;28;20059;-73
2020/12/02 08:52:56;;;;;;;14.82;7.45;;;;;;;1.51;82.18;98860.75;5055107;28;20006;-74
2020/12/02 08:55:22;;;;;;;13.65;5.85;;;;;;;1.60;81.03;98845.75;5058737;28;20163;-74
2020/12/02 08:57:48;;;;;;;10.23;5.05;;;;;;;1.65;79.69;98847.94;5048043;28;20054;-73
2020/12/02 09:00:20;;;;;;;12.27;6.03;;;;;;;1.64;79.95;98847.13;5046348;28;20025;-72
2020/12/02 09:02:46;;;;;;;13.38;6.70;;;;;;;1.73;79.53;98859.59;5044415;28;20234;-69
2020/12/02 09:05:12;;;;;;;13.50;6.22;;;;;;;1.73;79.88;98858.75;5049114;28;20032;-69
2020/12/02 09:07:38;;;;;;;14.68;7.22;;;;;;;1.82;80.31;98857.88;5049049;28;20127;-69
2020/12/02 09:10:05;;;;;;;19.13;8.82;;;;;;;1.84;80.12;98861.25;5044541;28;20067;-73
2020/12/02 09:12:30;;;;;;;16.70;7.57;;;;;;;1.85;80.23;98848.72;5050082;28;20478;-72
2020/12/02 09:14:56;;;;;;;15.27;7.40;;;;;;;1.97;80.13;98848.41;5047431;28;20041;-70
2020/12/02 09:17:22;;;;;;;15.98;7.47;;;;;;;2.02;80.17;98847.09;5048037;28;20020;-72
2020/12/02 09:19:48;;;;;;;18.02;7.75;;;;;;;2.11;79.95;98835.56;5049353;28;20491;-75
2020/12/02 09:22:13;;;;;;;14.63;7.68;;;;;;;1.95;79.49;98834.34;5040677;28;20389;-73
2020/12/02 09:24:38;;;;;;;13.75;6.97;;;;;;;2.14;79.30;98840.59;5046380;28;20506;-73
2020/12/02 09:27:04;;;;;;;15.82;7.68;;;;;;;2.16;78.80;98838.63;5049057;28;20032;-74
2020/12/02 09:29:29;;;;;;;14.60;6.70;;;;;;;2.22;79.45;98832.66;5046986;28;20037;-74
2020/12/02 09:31:54;;;;;;;13.73;6.70;;;;;;;2.22;78.91;98832.66;5046459;28;20025;-74
2020/12/02 09:34:19;;;;;;;14.23;6.82;;;;;;;2.14;78.61;98819.25;5039360;28;20045;-74
2020/12/02 09:36:46;;;;;;;15.18;7.18;;;;;;;2.08;79.83;98831.34;5042251;28;20459;-73
2020/12/02 09:39:13;;;;;;;14.93;7.85;;;;;;;2.04;79.30;98827.28;5048990;28;20040;-75
2020/12/02 09:42:09;;;;;;;19.75;8.20;;;;;;;2.06;79.86;98827.16;5049471;28;20500;-77
2020/12/02 09:44:47;;;;;;;15.45;7.82;;;;;;;2.23;78.91;98823.69;5060462;28;20036;-74
2020/12/02 09:47:15;;;;;;;16.08;7.22;;;;;;;2.25;78.51;98827.03;5057925;28;20033;-74
2020/12/02 09:49:43;;;;;;;19.10;8.30;;;;;;;2.26;78.65;98819.88;5056737;28;20021;-73
2020/12/02 09:52:08;;;;;;;17.10;8.20;;;;;;;2.28;78.47;98818.75;5057509;28;20094;-79
2020/12/02 09:54:42;;;;;;;15.30;8.48;;;;;;;2.18;79.45;98810.78;5064559;28;20030;-75
2020/12/02 09:57:36;;;;;;;20.17;9.65;;;;;;;2.20;79.94;98813.28;5052809;28;20044;-78
2020/12/02 10:00:05;;;;;;;20.08;9.48;;;;;;;2.16;79.94;98801.25;5038490;28;20093;-78
2020/12/02 10:02:37;;;;;;;19.08;9.82;;;;;;;2.18;78.70;98800.13;5051221;28;20124;-72
2020/12/02 10:05:25;;;;;;;22.02;9.85;;;;;;;2.14;80.32;98801.38;5063956;28;20036;-72
2020/12/02 10:07:56;;;;;;;21.73;9.33;;;;;;;2.29;79.89;98800.91;5059501;28;20039;-73
2020/12/02 10:10:33;;;;;;;18.60;8.48;;;;;;;2.51;78.46;98792.41;5048327;28;20037;-78
2020/12/02 10:13:08;;;;;;;19.77;9.18;;;;;;;2.43;79.47;98787.00;5055293;28;20035;-74
2020/12/02 10:15:44;;;;;;;19.52;9.32;;;;;;;2.39;79.13;98785.66;5051859;28;20029;-73
2020/12/02 10:18:33;;;;;;;19.77;8.77;;;;;;;2.23;78.72;98774.78;5060041;28;20107;-73
2020/12/02 10:21:04;;;;;;;;;;;;;;;2.24;79.60;98777.31;5051074;28;20412;-77
2020/12/02 10:23:39;;;;;;;18.95;8.23;;;;;;;2.39;77.47;98769.63;5046782;28;19916;-75
2020/12/02 10:26:26;;;;;;;20.45;9.02;;;;;;;2.36;78.73;98768.09;5045686;28;20396;-76
2020/12/02 10:29:07;;;;;;;23.00;9.80;;;;;;;2.32;78.73;98757.88;5049341;28;20100;-74
2020/12/02 10:31:38;;;;;;;21.13;9.30;;;;;;;2.43;78.20;98762.97;5045937;28;20079;-75
2020/12/02 10:34:11;;;;;;;20.65;9.70;;;;;;;2.30;78.03;98750.00;5047533;28;20036;-73
2020/12/02 10:36:42;;;;;;;19.17;8.77;;;;;;;2.18;77.49;98741.41;5048619;28;20040;-74
2020/12/02 10:39:13;;;;;;;19.63;8.70;;;;;;;2.19;78.60;98742.22;5041691;28;20375;-75
2020/12/02 10:41:53;;;;;;;22.80;9.63;;;;;;;2.08;79.24;98734.44;5047767;28;20524;-74
2020/12/02 10:44:36;;;;;;;22.02;9.60;;;;;;;2.21;78.73;98726.91;5046828;28;20386;-73
2020/12/02 10:47:01;;;;;;;44.08;11.43;;;;;;;2.23;78.82;98734.75;5064496;28;20037;-71
2020/12/02 10:49:29;;;;;;;50.70;12.05;;;;;;;2.23;79.27;98730.28;5048206;28;20040;-72
2020/12/02 10:51:57;;;;;;;24.60;9.95;;;;;;;2.13;80.05;98722.31;5052515;28;20121;-71
2020/12/02 10:54:25;;;;;;;21.38;9.35;;;;;;;2.36;79.11;98716.53;5051164;28;20048;-73
2020/12/02 10:56:56;;;;;;;21.23;9.35;;;;;;;2.44;77.97;98726.44;5049765;28;20025;-73
2020/12/02 10:59:23;;;;;;;20.60;8.98;;;;;;;2.46;78.37;98711.94;5052658;28;20096;-74
2020/12/02 11:01:48;;;;;;;18.42;8.93;;;;;;;2.29;78.52;98716.31;5048271;28;20124;-73
2020/12/02 11:04:17;;;;;;;20.75;10.02;;;;;;;2.33;78.95;98698.13;5052761;28;20132;-74
2020/12/02 11:06:47;;;;;;;22.93;10.77;;;;;;;2.38;80.04;98703.84;5055998;28;20100;-74
2020/12/02 11:09:34;;;;;;;22.95;10.82;;;;;;;2.34;81.35;98708.69;5050911;28;20021;-74
2020/12/02 11:12:17;;;;;;;22.80;9.43;;;;;;;2.26;81.09;98705.09;5046915;28;20132;-74
2020/12/02 11:14:51;;;;;;;21.52;10.23;;;;;;;2.26;80.28;98697.09;5054330;28;20037;-73
2020/12/02 11:17:31;;;;;;;18.83;9.57;;;;;;;2.17;81.10;98691.69;5047655;28;20037;-75
2020/12/02 11:20:04;;;;;;;19.58;10.25;;;;;;;2.25;81.46;98692.72;5031800;28;20313;-71
2020/12/02 11:23:16;;;;;;;21.25;10.68;;;;;;;2.21;81.87;98696.72;5042624;28;20042;-72
2020/12/02 11:25:52;;;;;;;22.45;9.65;;;;;;;2.15;82.60;98692.84;5047183;28;20410;-71
2020/12/02 11:28:18;;;;;;;17.75;9.02;;;;;;;2.14;82.94;98691.97;5046603;28;20033;-71
2020/12/02 11:30:44;;;;;;;19.63;9.98;;;;;;;2.15;83.48;98682.16;5051203;28;20039;-71
2020/12/02 11:33:25;;;;;;;24.42;10.73;;;;;;;2.08;83.69;98689.09;5049214;28;20036;-71
2020/12/02 11:36:20;;;;;;;20.10;9.38;;;;;;;2.07;83.73;98676.72;5041740;28;20092;-71
2020/12/02 11:39:05;;;;;;;18.95;9.50;;;;;;;2.06;83.65;98678.56;5042965;28;20039;-71
2020/12/02 11:41:50;;;;;;;22.92;10.25;;;;;;;1.96;84.07;98662.63;5051853;28;20035;-72
2020/12/02 11:45:01;;;;;;;23.45;10.48;;;;;;;1.98;83.12;98671.31;5045667;28;20029;-72
2020/12/02 11:47:47;;;;;;;23.20;10.55;;;;;;;1.98;83.86;98671.31;5017836;28;20098;-72
2020/12/02 11:50:20;;;;;;;26.90;10.65;;;;;;;2.00;83.58;98663.16;5050822;28;20037;-72
2020/12/02 11:52:57;;;;;;;22.60;10.68;;;;;;;1.94;83.81;98656.59;5049264;28;20462;-71